sensor_id;sensor_type;location;lat;lon;timestamp;P1;durP1;ratioP1;P2;durP2;ratioP2
25615;SDS011;13482;48.234;13.006;2023-07-20T00:00:00;3.65;;;2.33;;
25615;SDS011;13482;48.234;13.006;2023-07-20T00:02:45;2.95;;;2.40;;
25615;SDS011;13482;48.234;13.006;2023-07-20T00:05:12;3.45;;;2.30;;
25615;SDS011;13482;48.234;13.006;2023-07-20T00:07:41;3.97;;;2.17;;
25615;SDS011;13482;48.234;13.006;2023-07-20T00:10:09;2.78;;;1.88;;
25615;SDS011;13482;48.234;13.006;2023-07-20T00:12:39;3.25;;;2.30;;
25615;SDS011;13482;48.234;13.006;2023-07-20T00:15:07;3.85;;;1.92;;
25615;SDS011;13482;48.234;13.006;2023-07-20T00:17:36;2.72;;;2.00;;
25615;SDS011;13482;48.234;13.006;2023-07-20T00:20:04;2.90;;;2.30;;
25615;SDS011;13482;48.234;13.006;2023-07-20T00:22:33;3.08;;;2.05;;
25615;SDS011;13482;48.234;13.006;2023-07-20T00:25:01;2.85;;;2.13;;
25615;SDS011;13482;48.234;13.006;2023-07-20T00:27:29;3.10;;;2.30;;
25615;SDS011;13482;48.234;13.006;2023-07-20T00:29:57;3.20;;;2.22;;
25615;SDS011;13482;48.234;13.006;2023-07-20T00:32:24;2.88;;;2.38;;
25615;SDS011;13482;48.234;13.006;2023-07-20T00:34:52;4.07;;;2.45;;
25615;SDS011;13482;48.234;13.006;2023-07-20T00:37:20;2.97;;;2.25;;
25615;SDS011;13482;48.234;13.006;2023-07-20T00:39:48;3.65;;;2.53;;
25615;SDS011;13482;48.234;13.006;2023-07-20T00:42:15;3.33;;;2.30;;
25615;SDS011;13482;48.234;13.006;2023-07-20T00:44:43;4.75;;;2.65;;
25615;SDS011;13482;48.234;13.006;2023-07-20T00:47:11;4.35;;;2.88;;
25615;SDS011;13482;48.234;13.006;2023-07-20T00:49:39;3.78;;;2.35;;
25615;SDS011;13482;48.234;13.006;2023-07-20T00:52:07;5.10;;;2.38;;
25615;SDS011;13482;48.234;13.006;2023-07-20T00:54:41;2.88;;;2.30;;
25615;SDS011;13482;48.234;13.006;2023-07-20T00:57:09;3.92;;;2.47;;
25615;SDS011;13482;48.234;13.006;2023-07-20T00:59:41;2.87;;;2.10;;
25615;SDS011;13482;48.234;13.006;2023-07-20T01:02:09;3.38;;;2.47;;
25615;SDS011;13482;48.234;13.006;2023-07-20T01:04:36;3.72;;;2.38;;
25615;SDS011;13482;48.234;13.006;2023-07-20T01:07:13;3.25;;;2.53;;
25615;SDS011;13482;48.234;13.006;2023-07-20T01:10:03;4.20;;;2.53;;
25615;SDS011;13482;48.234;13.006;2023-07-20T01:13:07;3.20;;;2.13;;
25615;SDS011;13482;48.234;13.006;2023-07-20T01:15:37;4.60;;;2.67;;
25615;SDS011;13482;48.234;13.006;2023-07-20T01:18:05;4.40;;;2.60;;
25615;SDS011;13482;48.234;13.006;2023-07-20T01:20:33;3.80;;;2.50;;
25615;SDS011;13482;48.234;13.006;2023-07-20T01:26:59;3.30;;;2.45;;
25615;SDS011;13482;48.234;13.006;2023-07-20T01:29:46;2.65;;;1.95;;
25615;SDS011;13482;48.234;13.006;2023-07-20T01:32:50;3.90;;;2.60;;
25615;SDS011;13482;48.234;13.006;2023-07-20T01:35:23;4.15;;;2.10;;
25615;SDS011;13482;48.234;13.006;2023-07-20T01:37:56;3.22;;;2.38;;
25615;SDS011;13482;48.234;13.006;2023-07-20T01:40:25;3.05;;;2.42;;
25615;SDS011;13482;48.234;13.006;2023-07-20T01:42:53;3.03;;;2.47;;
25615;SDS011;13482;48.234;13.006;2023-07-20T01:45:21;2.63;;;2.15;;
25615;SDS011;13482;48.234;13.006;2023-07-20T01:47:49;2.90;;;2.17;;
25615;SDS011;13482;48.234;13.006;2023-07-20T01:50:16;4.35;;;2.33;;
25615;SDS011;13482;48.234;13.006;2023-07-20T01:52:43;3.13;;;2.30;;
25615;SDS011;13482;48.234;13.006;2023-07-20T01:55:11;2.85;;;2.30;;
25615;SDS011;13482;48.234;13.006;2023-07-20T01:57:38;4.88;;;2.35;;
25615;SDS011;13482;48.234;13.006;2023-07-20T02:00:06;3.47;;;2.63;;
25615;SDS011;13482;48.234;13.006;2023-07-20T02:02:36;3.40;;;2.40;;
25615;SDS011;13482;48.234;13.006;2023-07-20T02:05:03;3.28;;;2.47;;
25615;SDS011;13482;48.234;13.006;2023-07-20T02:07:32;3.30;;;2.40;;
25615;SDS011;13482;48.234;13.006;2023-07-20T02:09:59;3.25;;;2.38;;
25615;SDS011;13482;48.234;13.006;2023-07-20T02:12:27;3.55;;;2.40;;
25615;SDS011;13482;48.234;13.006;2023-07-20T02:14:54;3.00;;;2.22;;
25615;SDS011;13482;48.234;13.006;2023-07-20T02:17:22;3.30;;;2.20;;
25615;SDS011;13482;48.234;13.006;2023-07-20T02:19:52;3.00;;;2.17;;
25615;SDS011;13482;48.234;13.006;2023-07-20T02:22:21;3.10;;;2.22;;
25615;SDS011;13482;48.234;13.006;2023-07-20T02:24:49;4.07;;;2.38;;
25615;SDS011;13482;48.234;13.006;2023-07-20T02:27:16;3.10;;;2.10;;
25615;SDS011;13482;48.234;13.006;2023-07-20T02:29:44;3.10;;;2.08;;
25615;SDS011;13482;48.234;13.006;2023-07-20T02:32:11;2.30;;;2.05;;
25615;SDS011;13482;48.234;13.006;2023-07-20T02:34:39;3.40;;;2.10;;
25615;SDS011;13482;48.234;13.006;2023-07-20T02:37:06;3.90;;;2.30;;
25615;SDS011;13482;48.234;13.006;2023-07-20T02:39:37;4.45;;;2.45;;
25615;SDS011;13482;48.234;13.006;2023-07-20T02:42:05;3.20;;;2.08;;
25615;SDS011;13482;48.234;13.006;2023-07-20T02:44:33;3.53;;;2.20;;
25615;SDS011;13482;48.234;13.006;2023-07-20T02:47:00;3.40;;;2.30;;
25615;SDS011;13482;48.234;13.006;2023-07-20T02:49:28;3.78;;;2.10;;
25615;SDS011;13482;48.234;13.006;2023-07-20T02:51:56;2.85;;;2.22;;
25615;SDS011;13482;48.234;13.006;2023-07-20T02:54:23;3.47;;;2.25;;
25615;SDS011;13482;48.234;13.006;2023-07-20T02:56:51;3.22;;;2.20;;
25615;SDS011;13482;48.234;13.006;2023-07-20T02:59:18;3.55;;;1.75;;
25615;SDS011;13482;48.234;13.006;2023-07-20T03:01:46;3.53;;;2.15;;
25615;SDS011;13482;48.234;13.006;2023-07-20T03:04:13;3.03;;;1.80;;
25615;SDS011;13482;48.234;13.006;2023-07-20T03:06:41;3.10;;;2.35;;
25615;SDS011;13482;48.234;13.006;2023-07-20T03:09:09;3.88;;;2.05;;
25615;SDS011;13482;48.234;13.006;2023-07-20T03:11:36;3.05;;;1.88;;
25615;SDS011;13482;48.234;13.006;2023-07-20T03:14:04;3.05;;;2.03;;
25615;SDS011;13482;48.234;13.006;2023-07-20T03:16:31;2.50;;;1.92;;
25615;SDS011;13482;48.234;13.006;2023-07-20T03:19:00;3.00;;;1.90;;
25615;SDS011;13482;48.234;13.006;2023-07-20T03:21:27;2.95;;;2.00;;
25615;SDS011;13482;48.234;13.006;2023-07-20T03:23:55;3.78;;;2.15;;
25615;SDS011;13482;48.234;13.006;2023-07-20T03:26:22;3.35;;;1.88;;
25615;SDS011;13482;48.234;13.006;2023-07-20T03:28:51;3.08;;;1.98;;
25615;SDS011;13482;48.234;13.006;2023-07-20T03:31:18;2.67;;;1.90;;
25615;SDS011;13482;48.234;13.006;2023-07-20T03:33:46;4.05;;;1.95;;
25615;SDS011;13482;48.234;13.006;2023-07-20T03:36:14;4.85;;;2.22;;
25615;SDS011;13482;48.234;13.006;2023-07-20T03:38:41;2.35;;;1.70;;
25615;SDS011;13482;48.234;13.006;2023-07-20T03:41:09;3.03;;;2.00;;
25615;SDS011;13482;48.234;13.006;2023-07-20T03:43:38;3.17;;;2.10;;
25615;SDS011;13482;48.234;13.006;2023-07-20T03:46:05;3.30;;;2.05;;
25615;SDS011;13482;48.234;13.006;2023-07-20T03:48:33;3.88;;;1.88;;
25615;SDS011;13482;48.234;13.006;2023-07-20T03:51:01;2.40;;;1.75;;
25615;SDS011;13482;48.234;13.006;2023-07-20T03:53:28;4.85;;;2.47;;
25615;SDS011;13482;48.234;13.006;2023-07-20T03:55:56;3.03;;;2.10;;
25615;SDS011;13482;48.234;13.006;2023-07-20T03:58:23;2.60;;;1.70;;
25615;SDS011;13482;48.234;13.006;2023-07-20T04:00:51;3.00;;;1.95;;
25615;SDS011;13482;48.234;13.006;2023-07-20T04:03:19;4.18;;;1.90;;
25615;SDS011;13482;48.234;13.006;2023-07-20T04:05:47;2.95;;;2.00;;
25615;SDS011;13482;48.234;13.006;2023-07-20T04:08:15;3.33;;;1.77;;
25615;SDS011;13482;48.234;13.006;2023-07-20T04:10:45;3.25;;;2.05;;
25615;SDS011;13482;48.234;13.006;2023-07-20T04:13:13;3.17;;;1.58;;
25615;SDS011;13482;48.234;13.006;2023-07-20T04:15:40;2.53;;;1.98;;
25615;SDS011;13482;48.234;13.006;2023-07-20T04:18:09;3.90;;;2.10;;
25615;SDS011;13482;48.234;13.006;2023-07-20T04:20:37;2.97;;;1.90;;
25615;SDS011;13482;48.234;13.006;2023-07-20T04:23:04;3.17;;;1.80;;
25615;SDS011;13482;48.234;13.006;2023-07-20T04:25:32;2.90;;;1.67;;
25615;SDS011;13482;48.234;13.006;2023-07-20T04:28:06;2.65;;;1.95;;
25615;SDS011;13482;48.234;13.006;2023-07-20T04:30:37;2.97;;;1.70;;
25615;SDS011;13482;48.234;13.006;2023-07-20T04:33:08;5.13;;;1.70;;
25615;SDS011;13482;48.234;13.006;2023-07-20T04:38:21;3.42;;;2.13;;
25615;SDS011;13482;48.234;13.006;2023-07-20T04:40:49;2.50;;;1.83;;
25615;SDS011;13482;48.234;13.006;2023-07-20T04:43:17;3.10;;;1.92;;
25615;SDS011;13482;48.234;13.006;2023-07-20T04:45:45;3.42;;;1.90;;
25615;SDS011;13482;48.234;13.006;2023-07-20T04:48:13;2.30;;;1.65;;
25615;SDS011;13482;48.234;13.006;2023-07-20T04:50:43;2.60;;;1.48;;
25615;SDS011;13482;48.234;13.006;2023-07-20T04:53:13;2.63;;;1.85;;
25615;SDS011;13482;48.234;13.006;2023-07-20T04:55:46;2.30;;;1.70;;
25615;SDS011;13482;48.234;13.006;2023-07-20T04:58:19;4.20;;;2.58;;
25615;SDS011;13482;48.234;13.006;2023-07-20T05:00:49;3.45;;;2.38;;
25615;SDS011;13482;48.234;13.006;2023-07-20T05:03:17;2.78;;;2.03;;
25615;SDS011;13482;48.234;13.006;2023-07-20T05:05:46;3.78;;;2.00;;
25615;SDS011;13482;48.234;13.006;2023-07-20T05:08:17;2.60;;;1.90;;
25615;SDS011;13482;48.234;13.006;2023-07-20T05:10:44;2.90;;;1.67;;
25615;SDS011;13482;48.234;13.006;2023-07-20T05:13:11;4.32;;;1.88;;
25615;SDS011;13482;48.234;13.006;2023-07-20T05:15:39;3.15;;;1.65;;
25615;SDS011;13482;48.234;13.006;2023-07-20T05:18:06;2.60;;;1.88;;
25615;SDS011;13482;48.234;13.006;2023-07-20T05:20:34;2.70;;;1.80;;
25615;SDS011;13482;48.234;13.006;2023-07-20T05:23:03;2.90;;;1.88;;
25615;SDS011;13482;48.234;13.006;2023-07-20T05:25:32;2.05;;;1.50;;
25615;SDS011;13482;48.234;13.006;2023-07-20T05:28:00;2.90;;;1.85;;
25615;SDS011;13482;48.234;13.006;2023-07-20T05:30:27;2.90;;;1.60;;
25615;SDS011;13482;48.234;13.006;2023-07-20T05:32:55;2.63;;;1.75;;
25615;SDS011;13482;48.234;13.006;2023-07-20T05:35:23;4.22;;;1.58;;
25615;SDS011;13482;48.234;13.006;2023-07-20T05:37:51;2.47;;;1.70;;
25615;SDS011;13482;48.234;13.006;2023-07-20T05:40:19;2.40;;;1.58;;
25615;SDS011;13482;48.234;13.006;2023-07-20T05:42:47;2.42;;;1.45;;
25615;SDS011;13482;48.234;13.006;2023-07-20T05:45:18;2.00;;;1.30;;
25615;SDS011;13482;48.234;13.006;2023-07-20T05:47:46;2.90;;;1.50;;
25615;SDS011;13482;48.234;13.006;2023-07-20T05:50:14;1.92;;;1.38;;
25615;SDS011;13482;48.234;13.006;2023-07-20T05:52:41;2.75;;;1.42;;
25615;SDS011;13482;48.234;13.006;2023-07-20T05:55:09;2.58;;;1.50;;
25615;SDS011;13482;48.234;13.006;2023-07-20T05:57:36;2.72;;;1.42;;
25615;SDS011;13482;48.234;13.006;2023-07-20T06:00:08;2.70;;;1.60;;
25615;SDS011;13482;48.234;13.006;2023-07-20T06:02:40;2.20;;;1.85;;
25615;SDS011;13482;48.234;13.006;2023-07-20T06:05:08;2.15;;;1.40;;
25615;SDS011;13482;48.234;13.006;2023-07-20T06:07:36;1.92;;;1.35;;
25615;SDS011;13482;48.234;13.006;2023-07-20T06:10:04;4.05;;;1.30;;
25615;SDS011;13482;48.234;13.006;2023-07-20T06:12:33;2.75;;;1.60;;
25615;SDS011;13482;48.234;13.006;2023-07-20T06:15:01;3.05;;;1.60;;
25615;SDS011;13482;48.234;13.006;2023-07-20T06:17:31;3.03;;;1.25;;
25615;SDS011;13482;48.234;13.006;2023-07-20T06:19:58;1.98;;;1.20;;
25615;SDS011;13482;48.234;13.006;2023-07-20T06:22:25;3.28;;;1.20;;
25615;SDS011;13482;48.234;13.006;2023-07-20T06:24:53;2.38;;;1.35;;
25615;SDS011;13482;48.234;13.006;2023-07-20T06:27:20;1.85;;;1.10;;
25615;SDS011;13482;48.234;13.006;2023-07-20T06:29:47;1.90;;;1.38;;
25615;SDS011;13482;48.234;13.006;2023-07-20T06:32:15;1.50;;;1.10;;
25615;SDS011;13482;48.234;13.006;2023-07-20T06:34:42;2.10;;;1.30;;
25615;SDS011;13482;48.234;13.006;2023-07-20T06:37:09;2.20;;;1.25;;
25615;SDS011;13482;48.234;13.006;2023-07-20T06:39:37;2.10;;;1.30;;
25615;SDS011;13482;48.234;13.006;2023-07-20T06:42:07;2.92;;;1.25;;
25615;SDS011;13482;48.234;13.006;2023-07-20T06:44:34;2.60;;;1.40;;
25615;SDS011;13482;48.234;13.006;2023-07-20T06:47:02;2.95;;;1.45;;
25615;SDS011;13482;48.234;13.006;2023-07-20T06:49:29;2.33;;;1.40;;
25615;SDS011;13482;48.234;13.006;2023-07-20T06:51:57;2.60;;;1.10;;
25615;SDS011;13482;48.234;13.006;2023-07-20T06:54:24;2.60;;;1.30;;
25615;SDS011;13482;48.234;13.006;2023-07-20T06:56:52;1.85;;;1.15;;
25615;SDS011;13482;48.234;13.006;2023-07-20T06:59:23;2.10;;;1.10;;
25615;SDS011;13482;48.234;13.006;2023-07-20T07:01:51;2.20;;;1.40;;
25615;SDS011;13482;48.234;13.006;2023-07-20T07:04:18;2.75;;;1.23;;
25615;SDS011;13482;48.234;13.006;2023-07-20T07:06:46;1.83;;;1.20;;
25615;SDS011;13482;48.234;13.006;2023-07-20T07:09:14;2.22;;;1.10;;
25615;SDS011;13482;48.234;13.006;2023-07-20T07:11:42;2.35;;;1.20;;
25615;SDS011;13482;48.234;13.006;2023-07-20T07:14:09;2.00;;;1.10;;
25615;SDS011;13482;48.234;13.006;2023-07-20T07:16:38;5.88;;;1.52;;
25615;SDS011;13482;48.234;13.006;2023-07-20T07:19:06;1.58;;;1.10;;
25615;SDS011;13482;48.234;13.006;2023-07-20T07:21:33;1.92;;;1.13;;
25615;SDS011;13482;48.234;13.006;2023-07-20T07:24:01;2.08;;;1.42;;
25615;SDS011;13482;48.234;13.006;2023-07-20T07:26:28;2.05;;;1.15;;
25615;SDS011;13482;48.234;13.006;2023-07-20T07:28:56;3.05;;;1.48;;
25615;SDS011;13482;48.234;13.006;2023-07-20T07:31:24;1.90;;;1.10;;
25615;SDS011;13482;48.234;13.006;2023-07-20T07:33:52;2.90;;;1.10;;
25615;SDS011;13482;48.234;13.006;2023-07-20T07:36:20;1.83;;;1.08;;
25615;SDS011;13482;48.234;13.006;2023-07-20T07:38:48;1.92;;;1.35;;
25615;SDS011;13482;48.234;13.006;2023-07-20T07:41:35;1.50;;;1.00;;
25615;SDS011;13482;48.234;13.006;2023-07-20T07:44:02;2.20;;;1.00;;
25615;SDS011;13482;48.234;13.006;2023-07-20T07:46:30;2.03;;;1.00;;
25615;SDS011;13482;48.234;13.006;2023-07-20T07:48:57;2.08;;;1.20;;
25615;SDS011;13482;48.234;13.006;2023-07-20T07:51:25;1.73;;;1.00;;
25615;SDS011;13482;48.234;13.006;2023-07-20T07:53:53;3.58;;;1.33;;
25615;SDS011;13482;48.234;13.006;2023-07-20T07:56:21;1.45;;;0.80;;
25615;SDS011;13482;48.234;13.006;2023-07-20T07:58:50;1.83;;;1.10;;
25615;SDS011;13482;48.234;13.006;2023-07-20T08:01:18;1.77;;;1.00;;
25615;SDS011;13482;48.234;13.006;2023-07-20T08:03:45;1.85;;;1.00;;
25615;SDS011;13482;48.234;13.006;2023-07-20T08:06:14;2.55;;;1.13;;
25615;SDS011;13482;48.234;13.006;2023-07-20T08:08:42;2.60;;;1.00;;
25615;SDS011;13482;48.234;13.006;2023-07-20T08:11:09;1.50;;;0.93;;
25615;SDS011;13482;48.234;13.006;2023-07-20T08:13:38;1.88;;;1.27;;
25615;SDS011;13482;48.234;13.006;2023-07-20T08:16:06;1.30;;;0.90;;
25615;SDS011;13482;48.234;13.006;2023-07-20T08:18:33;1.63;;;1.02;;
25615;SDS011;13482;48.234;13.006;2023-07-20T08:21:01;3.70;;;1.13;;
25615;SDS011;13482;48.234;13.006;2023-07-20T08:23:29;1.73;;;1.10;;
25615;SDS011;13482;48.234;13.006;2023-07-20T08:25:57;2.60;;;1.10;;
25615;SDS011;13482;48.234;13.006;2023-07-20T08:28:24;1.60;;;0.98;;
25615;SDS011;13482;48.234;13.006;2023-07-20T08:30:53;3.38;;;1.17;;
25615;SDS011;13482;48.234;13.006;2023-07-20T08:33:20;2.60;;;1.30;;
25615;SDS011;13482;48.234;13.006;2023-07-20T08:35:49;1.75;;;1.05;;
25615;SDS011;13482;48.234;13.006;2023-07-20T08:38:17;4.45;;;1.20;;
25615;SDS011;13482;48.234;13.006;2023-07-20T08:40:45;2.22;;;1.25;;
25615;SDS011;13482;48.234;13.006;2023-07-20T08:43:13;2.53;;;1.30;;
25615;SDS011;13482;48.234;13.006;2023-07-20T08:45:45;2.10;;;1.20;;
25615;SDS011;13482;48.234;13.006;2023-07-20T08:48:13;3.53;;;1.40;;
25615;SDS011;13482;48.234;13.006;2023-07-20T08:50:42;1.48;;;0.80;;
25615;SDS011;13482;48.234;13.006;2023-07-20T08:53:10;2.22;;;1.02;;
25615;SDS011;13482;48.234;13.006;2023-07-20T08:55:40;4.35;;;1.20;;
25615;SDS011;13482;48.234;13.006;2023-07-20T08:58:13;2.10;;;1.13;;
25615;SDS011;13482;48.234;13.006;2023-07-20T09:00:43;1.67;;;1.00;;
25615;SDS011;13482;48.234;13.006;2023-07-20T09:03:12;6.80;;;1.05;;
25615;SDS011;13482;48.234;13.006;2023-07-20T09:05:41;1.33;;;0.80;;
25615;SDS011;13482;48.234;13.006;2023-07-20T09:08:09;1.95;;;0.90;;
25615;SDS011;13482;48.234;13.006;2023-07-20T09:10:36;1.85;;;1.00;;
25615;SDS011;13482;48.234;13.006;2023-07-20T09:13:03;2.50;;;1.20;;
25615;SDS011;13482;48.234;13.006;2023-07-20T09:15:33;1.90;;;0.90;;
25615;SDS011;13482;48.234;13.006;2023-07-20T09:18:01;1.55;;;0.90;;
25615;SDS011;13482;48.234;13.006;2023-07-20T09:20:32;2.20;;;0.90;;
25615;SDS011;13482;48.234;13.006;2023-07-20T09:23:29;1.25;;;0.80;;
25615;SDS011;13482;48.234;13.006;2023-07-20T09:26:00;1.35;;;0.85;;
25615;SDS011;13482;48.234;13.006;2023-07-20T09:28:41;2.42;;;1.20;;
25615;SDS011;13482;48.234;13.006;2023-07-20T09:31:34;1.75;;;0.95;;
25615;SDS011;13482;48.234;13.006;2023-07-20T09:34:04;1.65;;;0.90;;
25615;SDS011;13482;48.234;13.006;2023-07-20T09:36:35;1.98;;;1.10;;
25615;SDS011;13482;48.234;13.006;2023-07-20T09:39:07;1.50;;;0.90;;
25615;SDS011;13482;48.234;13.006;2023-07-20T09:41:41;2.08;;;1.10;;
25615;SDS011;13482;48.234;13.006;2023-07-20T09:44:13;1.92;;;0.90;;
25615;SDS011;13482;48.234;13.006;2023-07-20T09:46:48;2.28;;;1.00;;
25615;SDS011;13482;48.234;13.006;2023-07-20T09:49:20;2.08;;;1.02;;
25615;SDS011;13482;48.234;13.006;2023-07-20T09:51:52;2.67;;;0.90;;
25615;SDS011;13482;48.234;13.006;2023-07-20T09:54:23;1.80;;;1.10;;
25615;SDS011;13482;48.234;13.006;2023-07-20T09:56:53;1.38;;;0.70;;
25615;SDS011;13482;48.234;13.006;2023-07-20T09:59:22;1.23;;;0.80;;
25615;SDS011;13482;48.234;13.006;2023-07-20T10:01:50;1.25;;;0.77;;
25615;SDS011;13482;48.234;13.006;2023-07-20T10:04:24;1.25;;;0.90;;
25615;SDS011;13482;48.234;13.006;2023-07-20T10:06:53;2.40;;;0.98;;
25615;SDS011;13482;48.234;13.006;2023-07-20T10:09:23;1.40;;;0.90;;
25615;SDS011;13482;48.234;13.006;2023-07-20T10:11:52;1.85;;;0.98;;
25615;SDS011;13482;48.234;13.006;2023-07-20T10:14:41;2.35;;;1.10;;
25615;SDS011;13482;48.234;13.006;2023-07-20T10:17:15;1.05;;;0.70;;
25615;SDS011;13482;48.234;13.006;2023-07-20T10:19:49;1.60;;;0.93;;
25615;SDS011;13482;48.234;13.006;2023-07-20T10:22:26;1.15;;;0.70;;
25615;SDS011;13482;48.234;13.006;2023-07-20T10:25:01;1.27;;;0.80;;
25615;SDS011;13482;48.234;13.006;2023-07-20T10:27:31;2.42;;;0.93;;
25615;SDS011;13482;48.234;13.006;2023-07-20T10:30:00;2.00;;;0.98;;
25615;SDS011;13482;48.234;13.006;2023-07-20T10:32:34;1.83;;;0.88;;
25615;SDS011;13482;48.234;13.006;2023-07-20T10:35:11;1.40;;;0.80;;
25615;SDS011;13482;48.234;13.006;2023-07-20T10:37:47;1.60;;;0.90;;
25615;SDS011;13482;48.234;13.006;2023-07-20T10:40:33;1.63;;;0.90;;
25615;SDS011;13482;48.234;13.006;2023-07-20T10:43:08;1.70;;;0.93;;
25615;SDS011;13482;48.234;13.006;2023-07-20T10:48:21;1.70;;;0.82;;
25615;SDS011;13482;48.234;13.006;2023-07-20T10:53:56;1.10;;;0.70;;
25615;SDS011;13482;48.234;13.006;2023-07-20T10:56:27;1.67;;;0.70;;
25615;SDS011;13482;48.234;13.006;2023-07-20T10:59:00;1.08;;;0.80;;
25615;SDS011;13482;48.234;13.006;2023-07-20T11:01:35;1.10;;;0.70;;
25615;SDS011;13482;48.234;13.006;2023-07-20T11:04:05;1.55;;;0.77;;
25615;SDS011;13482;48.234;13.006;2023-07-20T11:06:42;1.08;;;0.70;;
25615;SDS011;13482;48.234;13.006;2023-07-20T11:09:10;1.55;;;0.70;;
25615;SDS011;13482;48.234;13.006;2023-07-20T11:11:46;1.45;;;0.70;;
25615;SDS011;13482;48.234;13.006;2023-07-20T11:14:22;1.63;;;1.00;;
25615;SDS011;13482;48.234;13.006;2023-07-20T11:19:37;1.38;;;0.60;;
25615;SDS011;13482;48.234;13.006;2023-07-20T11:22:11;1.45;;;0.60;;
25615;SDS011;13482;48.234;13.006;2023-07-20T11:24:39;1.50;;;0.73;;
25615;SDS011;13482;48.234;13.006;2023-07-20T11:27:12;0.95;;;0.60;;
25615;SDS011;13482;48.234;13.006;2023-07-20T11:29:40;1.73;;;0.70;;
25615;SDS011;13482;48.234;13.006;2023-07-20T11:32:09;1.52;;;0.75;;
25615;SDS011;13482;48.234;13.006;2023-07-20T11:34:39;1.35;;;0.70;;
25615;SDS011;13482;48.234;13.006;2023-07-20T11:37:07;1.67;;;1.00;;
25615;SDS011;13482;48.234;13.006;2023-07-20T11:39:37;1.90;;;0.70;;
25615;SDS011;13482;48.234;13.006;2023-07-20T11:42:11;1.90;;;0.70;;
25615;SDS011;13482;48.234;13.006;2023-07-20T11:44:44;1.05;;;0.60;;
25615;SDS011;13482;48.234;13.006;2023-07-20T11:47:13;1.58;;;0.80;;
25615;SDS011;13482;48.234;13.006;2023-07-20T11:49:42;2.05;;;0.90;;
25615;SDS011;13482;48.234;13.006;2023-07-20T11:52:19;1.75;;;1.02;;
25615;SDS011;13482;48.234;13.006;2023-07-20T11:54:51;1.13;;;0.60;;
25615;SDS011;13482;48.234;13.006;2023-07-20T11:57:21;1.35;;;0.80;;
25615;SDS011;13482;48.234;13.006;2023-07-20T11:59:56;1.55;;;0.80;;
25615;SDS011;13482;48.234;13.006;2023-07-20T12:04:59;1.00;;;0.70;;
25615;SDS011;13482;48.234;13.006;2023-07-20T12:07:35;1.45;;;0.75;;
25615;SDS011;13482;48.234;13.006;2023-07-20T12:10:09;1.13;;;0.70;;
25615;SDS011;13482;48.234;13.006;2023-07-20T12:12:43;1.50;;;0.80;;
25615;SDS011;13482;48.234;13.006;2023-07-20T12:15:16;1.40;;;0.80;;
25615;SDS011;13482;48.234;13.006;2023-07-20T12:17:54;1.27;;;0.63;;
25615;SDS011;13482;48.234;13.006;2023-07-20T12:23:12;1.45;;;0.90;;
25615;SDS011;13482;48.234;13.006;2023-07-20T12:25:45;1.27;;;0.90;;
25615;SDS011;13482;48.234;13.006;2023-07-20T12:28:17;1.63;;;0.80;;
25615;SDS011;13482;48.234;13.006;2023-07-20T12:30:49;2.38;;;0.70;;
25615;SDS011;13482;48.234;13.006;2023-07-20T12:33:24;1.30;;;0.85;;
25615;SDS011;13482;48.234;13.006;2023-07-20T12:35:53;1.08;;;0.60;;
25615;SDS011;13482;48.234;13.006;2023-07-20T12:38:24;1.55;;;0.80;;
25615;SDS011;13482;48.234;13.006;2023-07-20T12:41:02;2.22;;;0.65;;
25615;SDS011;13482;48.234;13.006;2023-07-20T12:43:34;1.00;;;0.70;;
25615;SDS011;13482;48.234;13.006;2023-07-20T12:46:02;2.13;;;1.02;;
25615;SDS011;13482;48.234;13.006;2023-07-20T12:48:36;1.50;;;0.80;;
25615;SDS011;13482;48.234;13.006;2023-07-20T12:51:12;1.85;;;0.80;;
25615;SDS011;13482;48.234;13.006;2023-07-20T12:53:43;1.45;;;0.65;;
25615;SDS011;13482;48.234;13.006;2023-07-20T12:56:13;1.33;;;0.80;;
25615;SDS011;13482;48.234;13.006;2023-07-20T12:58:46;1.52;;;0.70;;
25615;SDS011;13482;48.234;13.006;2023-07-20T13:01:21;1.92;;;0.88;;
25615;SDS011;13482;48.234;13.006;2023-07-20T13:03:51;1.52;;;0.80;;
25615;SDS011;13482;48.234;13.006;2023-07-20T13:06:30;2.17;;;1.10;;
25615;SDS011;13482;48.234;13.006;2023-07-20T13:09:02;1.50;;;0.80;;
25615;SDS011;13482;48.234;13.006;2023-07-20T13:11:34;1.42;;;0.60;;
25615;SDS011;13482;48.234;13.006;2023-07-20T13:14:05;1.00;;;0.77;;
25615;SDS011;13482;48.234;13.006;2023-07-20T13:16:35;1.40;;;0.90;;
25615;SDS011;13482;48.234;13.006;2023-07-20T13:19:03;2.40;;;0.90;;
25615;SDS011;13482;48.234;13.006;2023-07-20T13:21:31;1.23;;;0.70;;
25615;SDS011;13482;48.234;13.006;2023-07-20T13:24:00;2.50;;;0.60;;
25615;SDS011;13482;48.234;13.006;2023-07-20T13:26:28;2.10;;;0.80;;
25615;SDS011;13482;48.234;13.006;2023-07-20T13:28:59;1.42;;;0.70;;
25615;SDS011;13482;48.234;13.006;2023-07-20T13:31:34;2.38;;;0.93;;
25615;SDS011;13482;48.234;13.006;2023-07-20T13:34:09;1.88;;;0.65;;
25615;SDS011;13482;48.234;13.006;2023-07-20T13:36:40;1.73;;;1.10;;
25615;SDS011;13482;48.234;13.006;2023-07-20T13:39:12;1.25;;;0.70;;
25615;SDS011;13482;48.234;13.006;2023-07-20T13:41:49;1.17;;;0.80;;
25615;SDS011;13482;48.234;13.006;2023-07-20T13:44:18;1.60;;;0.80;;
25615;SDS011;13482;48.234;13.006;2023-07-20T13:46:49;1.63;;;0.80;;
25615;SDS011;13482;48.234;13.006;2023-07-20T13:49:44;2.53;;;1.00;;
25615;SDS011;13482;48.234;13.006;2023-07-20T13:52:28;1.67;;;0.90;;
25615;SDS011;13482;48.234;13.006;2023-07-20T13:55:01;1.27;;;0.90;;
25615;SDS011;13482;48.234;13.006;2023-07-20T13:57:31;1.77;;;0.90;;
25615;SDS011;13482;48.234;13.006;2023-07-20T14:00:02;1.70;;;1.00;;
25615;SDS011;13482;48.234;13.006;2023-07-20T14:02:35;1.55;;;0.90;;
25615;SDS011;13482;48.234;13.006;2023-07-20T14:05:09;1.38;;;0.95;;
25615;SDS011;13482;48.234;13.006;2023-07-20T14:07:46;1.52;;;1.00;;
25615;SDS011;13482;48.234;13.006;2023-07-20T14:10:21;1.30;;;0.80;;
25615;SDS011;13482;48.234;13.006;2023-07-20T14:12:51;1.50;;;0.80;;
25615;SDS011;13482;48.234;13.006;2023-07-20T14:15:21;1.48;;;0.82;;
25615;SDS011;13482;48.234;13.006;2023-07-20T14:17:51;1.83;;;0.77;;
25615;SDS011;13482;48.234;13.006;2023-07-20T14:20:25;1.77;;;0.68;;
25615;SDS011;13482;48.234;13.006;2023-07-20T14:22:54;1.35;;;0.70;;
25615;SDS011;13482;48.234;13.006;2023-07-20T14:25:25;1.20;;;0.80;;
25615;SDS011;13482;48.234;13.006;2023-07-20T14:27:55;2.53;;;1.15;;
25615;SDS011;13482;48.234;13.006;2023-07-20T14:30:27;1.55;;;0.82;;
25615;SDS011;13482;48.234;13.006;2023-07-20T14:32:55;1.23;;;0.80;;
25615;SDS011;13482;48.234;13.006;2023-07-20T14:35:25;1.85;;;0.90;;
25615;SDS011;13482;48.234;13.006;2023-07-20T14:37:59;1.63;;;0.88;;
25615;SDS011;13482;48.234;13.006;2023-07-20T14:40:28;1.58;;;0.80;;
25615;SDS011;13482;48.234;13.006;2023-07-20T14:42:58;1.98;;;1.00;;
25615;SDS011;13482;48.234;13.006;2023-07-20T14:45:33;1.55;;;0.80;;
25615;SDS011;13482;48.234;13.006;2023-07-20T14:48:08;1.48;;;0.90;;
25615;SDS011;13482;48.234;13.006;2023-07-20T14:50:38;0.82;;;0.60;;
25615;SDS011;13482;48.234;13.006;2023-07-20T14:53:13;1.73;;;0.75;;
25615;SDS011;13482;48.234;13.006;2023-07-20T14:55:44;1.67;;;1.03;;
25615;SDS011;13482;48.234;13.006;2023-07-20T14:58:13;1.30;;;0.80;;
25615;SDS011;13482;48.234;13.006;2023-07-20T15:00:41;1.30;;;0.70;;
25615;SDS011;13482;48.234;13.006;2023-07-20T15:03:11;3.00;;;1.00;;
25615;SDS011;13482;48.234;13.006;2023-07-20T15:05:49;1.05;;;0.63;;
25615;SDS011;13482;48.234;13.006;2023-07-20T15:08:18;1.55;;;1.00;;
25615;SDS011;13482;48.234;13.006;2023-07-20T15:10:47;1.80;;;0.70;;